Time;durP1;ratioP1;P1;durP2;ratioP2;P2;SDS_P1;SDS_P2;PMS_P1;PMS_P2;Temp;Humidity;BMP_temperature;BMP_pressure;BME280_temperature;BME280_humidity;BME280_pressure;Samples;Min_cycle;Max_cycle;Signal;HPM_P1;HPM_P2
2023/02/23 00:01:35;;;;;;;14.85;13.55;;;;;;;;;;4990062;28;20087;-59
2023/02/23 00:04:01;;;;;;;14.75;13.80;;;;;;;;;;4993264;28;20073;-59
2023/02/23 00:06:29;;;;;;;15.45;14.45;;;;;;;;;;4992736;28;20062;-59
2023/02/23 00:08:54;;;;;;;16.88;15.57;;;;;;;;;;4993494;28;20063;-59
2023/02/23 00:11:20;;;;;;;15.63;14.70;;;;;;;;;;4995158;28;20093;-60
2023/02/23 00:13:50;;;;;;;15.23;14.13;;;;;;;;;;4992696;28;20042;-59
2023/02/23 00:16:19;;;;;;;15.50;14.47;;;;;;;;;;4993041;28;20061;-59
2023/02/23 00:18:55;;;;;;;16.60;14.95;;;;;;;;;;4992181;28;20029;-59
2023/02/23 00:21:20;;;;;;;14.88;13.95;;;;;;;;;;4996955;28;20699;-60
2023/02/23 00:23:51;;;;;;;15.40;14.30;;;;;;;;;;4993485;28;20045;-60
2023/02/23 00:26:19;;;;;;;14.90;13.90;;;;;;;;;;4997526;28;20038;-60
2023/02/23 00:28:46;;;;;;;15.95;14.75;;;;;;;;;;4994743;28;20080;-60
2023/02/23 00:31:11;;;;;;;15.15;14.10;;;;;;;;;;4992187;28;20680;-60
2023/02/23 00:33:38;;;;;;;15.95;14.88;;;;;;;;;;4992693;28;20038;-60
2023/02/23 00:36:07;;;;;;;15.10;13.95;;;;;;;;;;4994206;28;20400;-60
2023/02/23 00:38:34;;;;;;;15.70;14.60;;;;;;;;;;4995246;28;20403;-61
2023/02/23 00:41:05;;;;;;;16.20;15.05;;;;;;;;;;4996265;28;20149;-61
2023/02/23 00:43:33;;;;;;;16.15;14.75;;;;;;;;;;4995173;28;20081;-60
2023/02/23 00:45:58;;;;;;;16.42;15.05;;;;;;;;;;4992179;28;20034;-61
2023/02/23 00:48:24;;;;;;;16.35;15.15;;;;;;;;;;4996706;28;20365;-60
2023/02/23 00:50:57;;;;;;;16.00;14.98;;;;;;;;;;4991959;28;20061;-60
2023/02/23 00:53:22;;;;;;;16.27;15.10;;;;;;;;;;4993655;28;20038;-60
2023/02/23 00:55:48;;;;;;;17.33;16.08;;;;;;;;;;4990747;28;20026;-60
2023/02/23 00:58:13;;;;;;;18.80;17.13;;;;;;;;;;4993252;28;20539;-61
2023/02/23 01:00:41;;;;;;;16.25;15.18;;;;;;;;;;4992560;28;20062;-60
2023/02/23 01:03:06;;;;;;;16.42;15.32;;;;;;;;;;4995606;28;20037;-60
2023/02/23 01:05:35;;;;;;;17.10;15.82;;;;;;;;;;4998608;28;20038;-60
2023/02/23 01:08:00;;;;;;;17.42;16.08;;;;;;;;;;4996421;28;20469;-60
2023/02/23 01:10:25;;;;;;;15.57;14.52;;;;;;;;;;4995282;28;20052;-60
2023/02/23 01:12:52;;;;;;;18.90;17.52;;;;;;;;;;4996405;28;20377;-60
2023/02/23 01:15:19;;;;;;;17.23;15.80;;;;;;;;;;4996376;28;20037;-60
2023/02/23 01:17:45;;;;;;;18.33;16.92;;;;;;;;;;4998580;28;20109;-60
2023/02/23 01:20:17;;;;;;;16.90;15.63;;;;;;;;;;4997454;28;20100;-61
2023/02/23 01:22:45;;;;;;;16.42;15.32;;;;;;;;;;4996726;28;20026;-61
2023/02/23 01:25:11;;;;;;;18.00;16.70;;;;;;;;;;4996385;28;20029;-60
2023/02/23 01:27:38;;;;;;;17.90;16.65;;;;;;;;;;4997126;28;20460;-60
2023/02/23 01:30:04;;;;;;;18.40;17.10;;;;;;;;;;4998766;28;20130;-60
2023/02/23 01:32:29;;;;;;;19.27;17.88;;;;;;;;;;4995932;28;20042;-61
2023/02/23 01:34:54;;;;;;;20.40;18.30;;;;;;;;;;4997188;28;20030;-62
2023/02/23 01:37:20;;;;;;;19.10;17.75;;;;;;;;;;4994105;28;20372;-62
2023/02/23 01:39:45;;;;;;;18.02;16.80;;;;;;;;;;4991566;28;20045;-61
2023/02/23 01:42:12;;;;;;;18.63;17.10;;;;;;;;;;4992826;28;20034;-62
2023/02/23 01:44:38;;;;;;;18.67;15.88;;;;;;;;;;4996886;28;20416;-62
2023/02/23 01:47:04;;;;;;;15.77;14.68;;;;;;;;;;4995420;28;20042;-61
2023/02/23 01:49:33;;;;;;;17.45;16.10;;;;;;;;;;4995811;28;20049;-61
2023/02/23 01:52:12;;;;;;;17.02;15.90;;;;;;;;;;4995816;28;20038;-60
2023/02/23 01:54:42;;;;;;;16.55;15.48;;;;;;;;;;4997804;28;20041;-61
2023/02/23 01:57:11;;;;;;;20.40;18.65;;;;;;;;;;4995398;28;20026;-60
2023/02/23 01:59:41;;;;;;;19.83;18.48;;;;;;;;;;4998594;28;20038;-60
2023/02/23 02:02:08;;;;;;;17.05;15.90;;;;;;;;;;4996243;28;20056;-60
2023/02/23 02:04:45;;;;;;;19.73;18.38;;;;;;;;;;4996235;28;20030;-59
2023/02/23 02:07:17;;;;;;;17.40;16.08;;;;;;;;;;4992387;28;20412;-59
2023/02/23 02:10:24;;;;;;;16.58;15.32;;;;;;;;;;4998419;28;20136;-60
2023/02/23 02:12:28;;;;;;;19.23;17.83;;;;;;;;;;4994271;28;20054;-59
2023/02/23 02:14:55;;;;;;;16.90;15.70;;;;;;;;;;4995803;28;20070;-60
2023/02/23 02:17:52;;;;;;;18.25;17.00;;;;;;;;;;4996307;28;20041;-59
2023/02/23 02:20:29;;;;;;;16.95;15.73;;;;;;;;;;4996348;28;20133;-60
2023/02/23 02:23:16;;;;;;;16.85;15.82;;;;;;;;;;4994966;28;20085;-60
2023/02/23 02:25:55;;;;;;;16.52;15.30;;;;;;;;;;4997138;28;20102;-60
2023/02/23 02:28:37;;;;;;;17.75;16.60;;;;;;;;;;4995078;28;20033;-60
2023/02/23 02:31:22;;;;;;;17.83;16.52;;;;;;;;;;4993089;28;20046;-60
2023/02/23 02:34:17;;;;;;;18.65;17.20;;;;;;;;;;4994962;28;20124;-59
2023/02/23 02:37:03;;;;;;;17.67;16.25;;;;;;;;;;4996554;28;20033;-59
2023/02/23 02:39:52;;;;;;;19.52;17.80;;;;;;;;;;4996157;28;20044;-60
2023/02/23 02:42:29;;;;;;;15.70;14.40;;;;;;;;;;4996821;28;20336;-61
2023/02/23 02:45:13;;;;;;;19.08;17.70;;;;;;;;;;4999257;28;20600;-60
2023/02/23 02:48:10;;;;;;;16.83;15.73;;;;;;;;;;4997339;28;20095;-61
2023/02/23 02:50:54;;;;;;;20.10;18.63;;;;;;;;;;4991642;28;20235;-61
2023/02/23 02:53:39;;;;;;;17.27;16.17;;;;;;;;;;4995050;28;20137;-61
2023/02/23 02:56:06;;;;;;;18.15;16.77;;;;;;;;;;4995763;28;20042;-61
2023/02/23 02:58:32;;;;;;;19.45;18.15;;;;;;;;;;4993631;28;20038;-61
2023/02/23 04:19:26;;;;;;;17.88;16.77;;;;;;;;;;4993225;28;20038;-58
2023/02/23 04:21:52;;;;;;;19.63;18.20;;;;;;;;;;4990260;28;20031;-58
2023/02/23 04:24:17;;;;;;;18.75;17.48;;;;;;;;;;4994603;28;20049;-58
2023/02/23 04:26:42;;;;;;;19.80;18.48;;;;;;;;;;4991846;28;20034;-58
2023/02/23 04:29:10;;;;;;;18.02;16.83;;;;;;;;;;4992889;28;20045;-59
2023/02/23 04:31:35;;;;;;;19.60;18.23;;;;;;;;;;4991938;28;20038;-58
2023/02/23 04:34:00;;;;;;;20.50;18.75;;;;;;;;;;4992235;28;20384;-58
2023/02/23 04:36:26;;;;;;;20.17;18.55;;;;;;;;;;4993956;28;20546;-58
2023/02/23 04:38:51;;;;;;;19.77;18.38;;;;;;;;;;4997938;28;20067;-58
2023/02/23 04:41:18;;;;;;;19.95;18.55;;;;;;;;;;4998525;28;20041;-58
2023/02/23 04:43:44;;;;;;;22.20;20.15;;;;;;;;;;4998974;28;20114;-58
2023/02/23 04:46:09;;;;;;;18.42;17.08;;;;;;;;;;4998872;28;20050;-59
2023/02/23 04:48:34;;;;;;;19.73;18.33;;;;;;;;;;4998139;28;20033;-59
2023/02/23 04:51:00;;;;;;;18.73;17.42;;;;;;;;;;4997229;28;20465;-59
2023/02/23 04:53:25;;;;;;;18.48;17.27;;;;;;;;;;5000598;28;20539;-59
2023/02/23 04:55:51;;;;;;;19.45;17.98;;;;;;;;;;4994592;28;20029;-59
2023/02/23 04:58:16;;;;;;;21.38;19.73;;;;;;;;;;4995433;28;20041;-59
2023/02/23 05:00:42;;;;;;;19.40;18.10;;;;;;;;;;4996147;28;20089;-59
2023/02/23 05:03:07;;;;;;;21.38;19.98;;;;;;;;;;4998282;28;20303;-59
2023/02/23 05:05:32;;;;;;;21.27;19.80;;;;;;;;;;4999512;28;20103;-59
2023/02/23 05:07:58;;;;;;;21.13;19.70;;;;;;;;;;4999607;28;20072;-60
2023/02/23 05:10:23;;;;;;;19.63;18.27;;;;;;;;;;4997684;28;20050;-59
2023/02/23 05:12:49;;;;;;;20.55;19.15;;;;;;;;;;4996818;28;20431;-60
2023/02/23 05:15:14;;;;;;;24.45;18.45;;;;;;;;;;4993758;28;20548;-59
2023/02/23 05:17:40;;;;;;;21.83;20.33;;;;;;;;;;4996618;28;20030;-59
2023/02/23 05:20:07;;;;;;;18.23;16.90;;;;;;;;;;4997913;28;20050;-59
2023/02/23 05:22:33;;;;;;;23.50;21.67;;;;;;;;;;4995191;28;20464;-59
2023/02/23 05:24:58;;;;;;;20.83;19.30;;;;;;;;;;4995365;28;20034;-59
2023/02/23 05:27:24;;;;;;;18.33;16.83;;;;;;;;;;4996921;28;20076;-59
2023/02/23 05:29:49;;;;;;;20.73;19.13;;;;;;;;;;4993608;28;20552;-59
2023/02/23 05:32:14;;;;;;;19.25;17.75;;;;;;;;;;4995468;28;20034;-60
2023/02/23 05:34:39;;;;;;;30.92;19.60;;;;;;;;;;4996933;28;20484;-60
2023/02/23 05:37:05;;;;;;;19.95;18.63;;;;;;;;;;4994934;28;20751;-58
2023/02/23 05:39:30;;;;;;;20.63;19.02;;;;;;;;;;4998854;28;20030;-58
2023/02/23 05:41:56;;;;;;;19.25;17.88;;;;;;;;;;4994589;28;20030;-58
2023/02/23 05:44:21;;;;;;;17.70;16.27;;;;;;;;;;4995407;28;20030;-58
2023/02/23 05:46:46;;;;;;;20.20;18.75;;;;;;;;;;4996738;28;20121;-56
2023/02/23 05:49:12;;;;;;;19.45;18.08;;;;;;;;;;4995983;28;20112;-58
2023/02/23 05:51:38;;;;;;;20.88;19.35;;;;;;;;;;4997579;28;20040;-59
2023/02/23 05:54:04;;;;;;;19.85;18.48;;;;;;;;;;4995583;28;20490;-58
2023/02/23 05:56:29;;;;;;;20.58;19.20;;;;;;;;;;4992413;28;20034;-58
2023/02/23 05:58:56;;;;;;;20.15;18.48;;;;;;;;;;4993755;28;20044;-59
2023/02/23 06:01:23;;;;;;;22.33;20.63;;;;;;;;;;4996129;28;20096;-59
2023/02/23 06:03:49;;;;;;;20.98;19.55;;;;;;;;;;4992082;28;20030;-59
2023/02/23 06:06:15;;;;;;;20.05;18.65;;;;;;;;;;4994414;28;20048;-58
2023/02/23 06:08:41;;;;;;;20.83;19.27;;;;;;;;;;4994813;28;20038;-58
2023/02/23 06:11:07;;;;;;;20.27;18.92;;;;;;;;;;4997080;28;20471;-58
2023/02/23 06:13:32;;;;;;;21.13;19.63;;;;;;;;;;4994076;28;20037;-57
2023/02/23 06:15:58;;;;;;;18.55;17.35;;;;;;;;;;4993713;28;20100;-58
2023/02/23 06:18:25;;;;;;;21.20;19.50;;;;;;;;;;4988531;28;20034;-58
2023/02/23 06:20:51;;;;;;;20.15;18.60;;;;;;;;;;5001926;28;20452;-58
2023/02/23 06:23:16;;;;;;;19.40;18.10;;;;;;;;;;4993894;28;20037;-59
2023/02/23 06:25:45;;;;;;;19.05;17.75;;;;;;;;;;4991504;28;20076;-58
2023/02/23 06:28:11;;;;;;;22.23;20.23;;;;;;;;;;4994624;28;20111;-58
2023/02/23 06:30:37;;;;;;;20.80;19.30;;;;;;;;;;4996557;28;20049;-58
2023/02/23 06:33:04;;;;;;;21.95;20.38;;;;;;;;;;4994776;28;20046;-58
2023/02/23 06:35:31;;;;;;;19.20;17.90;;;;;;;;;;4995693;28;20120;-58
2023/02/23 06:37:58;;;;;;;22.17;20.30;;;;;;;;;;4994077;28;21155;-58
2023/02/23 06:40:23;;;;;;;20.70;19.30;;;;;;;;;;4995804;28;20660;-58
2023/02/23 06:42:49;;;;;;;23.48;21.55;;;;;;;;;;4995556;28;20032;-57
2023/02/23 06:45:14;;;;;;;20.67;19.10;;;;;;;;;;4992502;28;20049;-58
2023/02/23 06:47:40;;;;;;;17.77;16.67;;;;;;;;;;4994505;28;20038;-57
2023/02/23 06:50:09;;;;;;;22.27;20.48;;;;;;;;;;4994935;28;20472;-57
2023/02/23 06:52:34;;;;;;;21.63;20.15;;;;;;;;;;4994760;28;20117;-57
2023/02/23 06:54:59;;;;;;;18.88;17.58;;;;;;;;;;4993564;28;20145;-57
2023/02/23 06:57:25;;;;;;;20.38;18.80;;;;;;;;;;4994895;28;20122;-57
2023/02/23 06:59:50;;;;;;;21.42;19.92;;;;;;;;;;4996637;28;20038;-57
2023/02/23 07:02:16;;;;;;;19.42;18.10;;;;;;;;;;4993747;28;20345;-57
2023/02/23 07:04:42;;;;;;;22.00;20.13;;;;;;;;;;5000378;28;20038;-58
2023/02/23 07:07:07;;;;;;;20.58;19.17;;;;;;;;;;4990905;28;20531;-57
2023/02/23 07:09:33;;;;;;;20.27;18.75;;;;;;;;;;4996511;28;20505;-57
2023/02/23 07:11:59;;;;;;;22.95;21.35;;;;;;;;;;4993565;28;20044;-57
2023/02/23 07:14:24;;;;;;;24.23;21.90;;;;;;;;;;4994478;28;20077;-57
2023/02/23 07:16:50;;;;;;;20.10;18.63;;;;;;;;;;4991304;28;20124;-58
2023/02/23 07:19:15;;;;;;;19.73;18.33;;;;;;;;;;4993223;28;20127;-57
2023/02/23 07:21:40;;;;;;;20.77;19.00;;;;;;;;;;4992789;28;20041;-57
2023/02/23 07:24:06;;;;;;;20.65;19.25;;;;;;;;;;4990500;28;20046;-57
2023/02/23 07:26:32;;;;;;;21.73;19.95;;;;;;;;;;4996824;28;20144;-57
2023/02/23 07:28:58;;;;;;;18.08;16.77;;;;;;;;;;4993961;28;20380;-57
2023/02/23 07:31:25;;;;;;;21.10;19.70;;;;;;;;;;4994486;28;20042;-57
2023/02/23 07:33:53;;;;;;;21.92;20.17;;;;;;;;;;4992380;28;20034;-57
2023/02/23 07:36:19;;;;;;;21.88;20.25;;;;;;;;;;4997201;28;20030;-57
2023/02/23 07:38:45;;;;;;;22.02;20.40;;;;;;;;;;4992355;28;20506;-57
2023/02/23 07:41:10;;;;;;;21.92;20.02;;;;;;;;;;4995120;28;20066;-57
2023/02/23 07:43:35;;;;;;;19.70;18.23;;;;;;;;;;4996998;28;20041;-57
2023/02/23 07:46:01;;;;;;;19.40;18.10;;;;;;;;;;4993212;28;20046;-57
2023/02/23 07:48:27;;;;;;;21.85;20.08;;;;;;;;;;4996814;28;20025;-57
2023/02/23 07:50:52;;;;;;;19.80;18.42;;;;;;;;;;4995025;28;20107;-57
2023/02/23 07:53:18;;;;;;;21.75;19.67;;;;;;;;;;4994170;28;20060;-58
2023/02/23 07:55:44;;;;;;;21.02;19.55;;;;;;;;;;4993966;28;20474;-58
2023/02/23 07:58:09;;;;;;;20.23;18.83;;;;;;;;;;4991495;28;20039;-58
2023/02/23 08:00:37;;;;;;;22.60;20.70;;;;;;;;;;4994653;28;20514;-58
2023/02/23 08:03:03;;;;;;;23.25;21.55;;;;;;;;;;4995738;28;20022;-58
2023/02/23 08:05:28;;;;;;;19.48;18.17;;;;;;;;;;4994840;28;20041;-58
2023/02/23 08:07:55;;;;;;;21.80;20.02;;;;;;;;;;4993670;28;20103;-58
2023/02/23 08:10:21;;;;;;;17.38;16.27;;;;;;;;;;4993873;28;20412;-58
2023/02/23 08:12:46;;;;;;;19.33;17.73;;;;;;;;;;4991996;28;20069;-58
2023/02/23 08:15:12;;;;;;;21.60;18.98;;;;;;;;;;4992702;28;20038;-58
2023/02/23 08:17:38;;;;;;;17.88;16.60;;;;;;;;;;4994653;28;20128;-58
2023/02/23 08:20:04;;;;;;;19.08;17.55;;;;;;;;;;4993096;28;20073;-58
2023/02/23 08:22:30;;;;;;;18.90;17.70;;;;;;;;;;4993807;28;20144;-58
2023/02/23 08:24:55;;;;;;;19.60;17.90;;;;;;;;;;4993593;28;20143;-57
2023/02/23 08:27:21;;;;;;;21.15;19.52;;;;;;;;;;4993260;28;20026;-58
2023/02/23 08:29:46;;;;;;;18.30;17.02;;;;;;;;;;4993566;28;20546;-59
2023/02/23 08:32:12;;;;;;;19.58;17.48;;;;;;;;;;4989839;28;20030;-59
2023/02/23 08:34:39;;;;;;;22.00;20.00;;;;;;;;;;4992618;28;20034;-60
2023/02/23 08:37:04;;;;;;;18.23;16.98;;;;;;;;;;4994197;28;20045;-59
2023/02/23 08:39:30;;;;;;;18.77;17.33;;;;;;;;;;4995079;28;20026;-59
2023/02/23 08:41:55;;;;;;;19.65;18.08;;;;;;;;;;4995687;28;20508;-59
2023/02/23 08:44:20;;;;;;;18.67;17.38;;;;;;;;;;4994586;28;20061;-59
2023/02/23 08:46:46;;;;;;;20.75;19.27;;;;;;;;;;4993685;28;20041;-60
2023/02/23 08:49:11;;;;;;;16.73;15.63;;;;;;;;;;4993965;28;20121;-58
2023/02/23 08:51:37;;;;;;;15.82;14.65;;;;;;;;;;4993629;28;20112;-58
2023/02/23 08:54:02;;;;;;;17.35;15.98;;;;;;;;;;4995734;28;20046;-60
2023/02/23 08:56:27;;;;;;;19.08;17.55;;;;;;;;;;4995317;28;20514;-60
2023/02/23 08:58:53;;;;;;;18.02;16.73;;;;;;;;;;4994331;28;20038;-58
2023/02/23 09:01:20;;;;;;;16.70;15.32;;;;;;;;;;4992762;28;20102;-59
2023/02/23 09:03:46;;;;;;;18.45;16.88;;;;;;;;;;4991576;28;20038;-59
2023/02/23 09:06:15;;;;;;;16.60;15.50;;;;;;;;;;4992419;28;20041;-58
2023/02/23 09:08:41;;;;;;;16.88;15.25;;;;;;;;;;4993894;28;20121;-60
2023/02/23 09:11:06;;;;;;;18.35;16.48;;;;;;;;;;4991654;28;20856;-59
2023/02/23 09:13:31;;;;;;;18.67;17.17;;;;;;;;;;4993079;28;20045;-60
2023/02/23 09:15:57;;;;;;;18.50;16.98;;;;;;;;;;4990383;28;20060;-59
2023/02/23 09:18:23;;;;;;;15.43;14.25;;;;;;;;;;4994285;28;20136;-58
2023/02/23 09:20:48;;;;;;;16.65;14.63;;;;;;;;;;4993373;28;20637;-58
2023/02/23 09:23:14;;;;;;;17.77;16.48;;;;;;;;;;4991593;28;20078;-58
2023/02/23 09:25:43;;;;;;;16.05;14.65;;;;;;;;;;4998819;28;20041;-58
2023/02/23 09:28:19;;;;;;;17.88;16.33;;;;;;;;;;4995188;28;20049;-58
2023/02/23 09:30:45;;;;;;;19.88;18.02;;;;;;;;;;4995072;28;20104;-58
2023/02/23 09:33:12;;;;;;;19.20;17.73;;;;;;;;;;4994434;28;20430;-60
2023/02/23 09:35:37;;;;;;;16.73;15.52;;;;;;;;;;4995237;28;20261;-60
2023/02/23 09:38:05;;;;;;;18.25;16.83;;;;;;;;;;4996611;28;20128;-60
2023/02/23 09:40:48;;;;;;;17.17;16.10;;;;;;;;;;4992170;28;20189;-60
2023/02/23 09:43:49;;;;;;;18.52;16.77;;;;;;;;;;4994189;28;20119;-60
2023/02/23 09:46:20;;;;;;;16.95;15.68;;;;;;;;;;4994700;28;20046;-60
2023/02/23 09:48:45;;;;;;;;;;;;;;;;;;4995702;28;20038;-60
2023/02/23 09:51:17;;;;;;;16.98;15.63;;;;;;;;;;4996055;28;19941;-60
2023/02/23 09:53:46;;;;;;;16.67;15.57;;;;;;;;;;4996326;28;20038;-60
2023/02/23 09:56:19;;;;;;;19.10;17.73;;;;;;;;;;4995625;28;20034;-61
2023/02/23 09:58:44;;;;;;;16.77;15.40;;;;;;;;;;5001584;28;20061;-60
2023/02/23 10:01:20;;;;;;;19.30;17.52;;;;;;;;;;4998092;28;20057;-60
2023/02/23 10:03:58;;;;;;;17.15;15.77;;;;;;;;;;4994759;28;20034;-58
2023/02/23 10:06:24;;;;;;;17.88;16.52;;;;;;;;;;4993331;28;20042;-58
2023/02/23 10:09:20;;;;;;;16.95;15.85;;;;;;;;;;4997961;28;20047;-58
2023/02/23 10:12:17;;;;;;;17.45;16.05;;;;;;;;;;4996984;28;20112;-58
2023/02/23 10:15:06;;;;;;;16.23;14.95;;;;;;;;;;4998534;28;20049;-58
2023/02/23 10:17:41;;;;;;;15.38;14.38;;;;;;;;;;4997283;28;20719;-59
2023/02/23 10:20:28;;;;;;;16.30;15.13;;;;;;;;;;4996101;28;20053;-58
2023/02/23 10:23:00;;;;;;;16.08;14.98;;;;;;;;;;4997575;28;20034;-58
2023/02/23 10:25:30;;;;;;;16.98;15.88;;;;;;;;;;4993527;28;20718;-60
2023/02/23 10:27:57;;;;;;;16.63;15.52;;;;;;;;;;4998372;28;20495;-60
2023/02/23 10:30:29;;;;;;;16.70;15.43;;;;;;;;;;4996532;28;20037;-60
2023/02/23 10:33:25;;;;;;;16.05;14.90;;;;;;;;;;4993281;28;20098;-58
2023/02/23 10:35:59;;;;;;;15.10;14.07;;;;;;;;;;4994540;28;20053;-60
2023/02/23 10:38:24;;;;;;;17.45;16.15;;;;;;;;;;4997657;28;20038;-59
2023/02/23 10:40:53;;;;;;;15.25;14.15;;;;;;;;;;4994990;28;20354;-60
2023/02/23 10:43:19;;;;;;;15.10;14.10;;;;;;;;;;4996467;28;20243;-60
2023/02/23 10:45:47;;;;;;;14.57;13.65;;;;;;;;;;4994802;28;20711;-60
2023/02/23 10:48:16;;;;;;;15.13;14.00;;;;;;;;;;4994454;28;20046;-60
2023/02/23 10:50:44;;;;;;;14.40;13.38;;;;;;;;;;4997175;28;20044;-60
2023/02/23 10:53:23;;;;;;;15.70;14.60;;;;;;;;;;4994438;28;20049;-60
2023/02/23 10:56:05;;;;;;;15.35;14.25;;;;;;;;;;4995392;28;20593;-60
2023/02/23 10:58:47;;;;;;;15.32;14.32;;;;;;;;;;4995922;28;20058;-60
2023/02/23 11:01:29;;;;;;;14.18;13.18;;;;;;;;;;4994989;28;20037;-58
2023/02/23 11:03:55;;;;;;;14.80;13.77;;;;;;;;;;4992116;28;20113;-59
2023/02/23 11:06:29;;;;;;;12.93;12.05;;;;;;;;;;4992192;28;20093;-59
2023/02/23 11:08:55;;;;;;;14.02;13.13;;;;;;;;;;4994709;28;20166;-59
2023/02/23 11:11:28;;;;;;;15.18;14.20;;;;;;;;;;4994739;28;20034;-58
2023/02/23 11:13:55;;;;;;;13.65;12.70;;;;;;;;;;4993112;28;20061;-58
2023/02/23 11:16:37;;;;;;;14.02;13.10;;;;;;;;;;4992151;28;20038;-58
2023/02/23 11:19:06;;;;;;;15.60;14.30;;;;;;;;;;4993243;28;20043;-59
2023/02/23 11:21:34;;;;;;;15.02;14.02;;;;;;;;;;4993716;28;20034;-58
2023/02/23 11:24:24;;;;;;;15.15;14.00;;;;;;;;;;4995615;28;20093;-58
2023/02/23 11:26:53;;;;;;;15.50;14.43;;;;;;;;;;4993428;28;20352;-59
2023/02/23 11:29:41;;;;;;;13.52;12.60;;;;;;;;;;4992679;28;20322;-59
2023/02/23 11:32:12;;;;;;;13.57;12.73;;;;;;;;;;4992167;28;20372;-59
2023/02/23 11:34:39;;;;;;;14.60;13.60;;;;;;;;;;4993458;28;20172;-58
2023/02/23 11:37:20;;;;;;;15.18;14.10;;;;;;;;;;5000799;28;20053;-58
2023/02/23 11:40:20;;;;;;;14.07;13.18;;;;;;;;;;4993206;28;20133;-58
2023/02/23 11:42:54;;;;;;;13.17;12.37;;;;;;;;;;4994143;28;20129;-58
2023/02/23 11:45:22;;;;;;;15.20;14.18;;;;;;;;;;4994829;28;20030;-58
2023/02/23 11:47:54;;;;;;;14.77;13.73;;;;;;;;;;4996447;28;20113;-58
2023/02/23 11:50:47;;;;;;;14.15;13.25;;;;;;;;;;4991009;28;20042;-59
2023/02/23 11:53:16;;;;;;;14.93;13.88;;;;;;;;;;4992027;28;20061;-60
2023/02/23 11:55:49;;;;;;;14.27;13.38;;;;;;;;;;4995068;28;20041;-59
2023/02/23 11:58:25;;;;;;;14.85;13.95;;;;;;;;;;4993396;28;20059;-58
2023/02/23 12:01:10;;;;;;;14.93;13.93;;;;;;;;;;4993796;28;20087;-58
2023/02/23 12:03:35;;;;;;;15.55;14.38;;;;;;;;;;4994328;28;20033;-60
2023/02/23 12:06:01;;;;;;;16.13;14.65;;;;;;;;;;4991911;28;20038;-58
2023/02/23 12:08:56;;;;;;;14.25;13.05;;;;;;;;;;4992864;28;20045;-60
2023/02/23 12:11:26;;;;;;;12.80;12.00;;;;;;;;;;4992121;28;20037;-60
2023/02/23 12:14:02;;;;;;;12.35;11.65;;;;;;;;;;4992981;28;20030;-60
2023/02/23 12:16:43;;;;;;;13.35;12.45;;;;;;;;;;4996070;28;20029;-60
2023/02/23 12:19:11;;;;;;;;;;;;;;;;;;4994377;28;20048;-60
2023/02/23 12:21:42;;;;;;;11.57;10.88;;;;;;;;;;4994155;28;19991;-59
2023/02/23 12:24:07;;;;;;;13.00;12.20;;;;;;;;;;4997282;28;20046;-59
2023/02/23 12:26:54;;;;;;;13.70;12.75;;;;;;;;;;4993039;28;21029;-59
2023/02/23 12:29:38;;;;;;;12.95;12.13;;;;;;;;;;4991918;28;20038;-60
2023/02/23 12:32:11;;;;;;;12.73;11.93;;;;;;;;;;4992766;28;20156;-59
2023/02/23 12:34:50;;;;;;;13.55;12.65;;;;;;;;;;4994735;28;20115;-58
2023/02/23 12:37:29;;;;;;;14.00;13.07;;;;;;;;;;4992107;28;20041;-58
2023/02/23 12:40:13;;;;;;;12.70;11.90;;;;;;;;;;4994577;28;20034;-58
2023/02/23 12:42:59;;;;;;;13.82;12.82;;;;;;;;;;4992849;28;20113;-59
2023/02/23 12:45:51;;;;;;;13.30;12.40;;;;;;;;;;4992012;28;20620;-59
2023/02/23 12:48:40;;;;;;;13.65;12.80;;;;;;;;;;4991749;28;20400;-59
2023/02/23 12:51:38;;;;;;;13.55;12.75;;;;;;;;;;4993543;28;20058;-59
2023/02/23 12:54:04;;;;;;;13.93;13.02;;;;;;;;;;4990042;28;20112;-58
2023/02/23 12:56:34;;;;;;;13.10;12.02;;;;;;;;;;4991973;28;20042;-59
2023/02/23 12:59:15;;;;;;;12.77;11.93;;;;;;;;;;4995198;28;20041;-58
2023/02/23 13:01:48;;;;;;;12.60;11.80;;;;;;;;;;4996452;28;20136;-58
2023/02/23 13:04:51;;;;;;;12.52;11.63;;;;;;;;;;4998377;28;20044;-58
2023/02/23 13:07:23;;;;;;;13.27;12.23;;;;;;;;;;4995663;28;20041;-58
2023/02/23 13:09:54;;;;;;;12.85;12.05;;;;;;;;;;4995013;28;20120;-58
2023/02/23 13:12:44;;;;;;;13.02;12.02;;;;;;;;;;4994821;28;20413;-59
2023/02/23 13:15:47;;;;;;;12.80;11.97;;;;;;;;;;4996924;28;20040;-60
2023/02/23 13:18:41;;;;;;;11.68;10.98;;;;;;;;;;4995077;28;20107;-59
2023/02/23 13:21:16;;;;;;;12.80;11.90;;;;;;;;;;4998058;28;20038;-59
2023/02/23 13:23:57;;;;;;;14.88;11.90;;;;;;;;;;4996705;28;20041;-59
2023/02/23 13:27:03;;;;;;;12.80;11.90;;;;;;;;;;4994322;28;20030;-59
2023/02/23 13:29:36;;;;;;;12.88;11.90;;;;;;;;;;4995137;28;20038;-59
2023/02/23 13:32:04;;;;;;;12.57;11.75;;;;;;;;;;4997740;28;20038;-59
2023/02/23 13:34:41;;;;;;;13.35;12.43;;;;;;;;;;4993701;28;20046;-59
2023/02/23 13:37:08;;;;;;;13.27;12.38;;;;;;;;;;4995342;28;20467;-59
2023/02/23 13:39:46;;;;;;;12.57;11.82;;;;;;;;;;4999944;28;20444;-59
2023/02/23 13:42:49;;;;;;;12.38;11.57;;;;;;;;;;4996701;28;20038;-59
2023/02/23 13:45:30;;;;;;;13.68;12.70;;;;;;;;;;4995314;28;20038;-59
2023/02/23 13:47:58;;;;;;;12.50;11.80;;;;;;;;;;4997328;28;20026;-59
2023/02/23 13:50:45;;;;;;;13.40;12.60;;;;;;;;;;4994505;28;20480;-59
2023/02/23 13:53:40;;;;;;;12.73;11.93;;;;;;;;;;4997008;28;20599;-59
2023/02/23 13:56:09;;;;;;;13.00;12.20;;;;;;;;;;4996466;28;20038;-59
2023/02/23 13:58:35;;;;;;;15.60;14.60;;;;;;;;;;4995920;28;20084;-59
2023/02/23 14:01:09;;;;;;;13.48;12.57;;;;;;;;;;4996937;28;20106;-58
2023/02/23 14:03:42;;;;;;;13.15;12.35;;;;;;;;;;4997113;28;20045;-59
2023/02/23 14:06:12;;;;;;;14.05;13.15;;;;;;;;;;4995730;28;20103;-58
2023/02/23 14:08:40;;;;;;;14.25;13.27;;;;;;;;;;4995485;28;20040;-60
2023/02/23 14:11:06;;;;;;;13.95;13.15;;;;;;;;;;5000267;28;20046;-58
2023/02/23 14:13:39;;;;;;;13.77;12.98;;;;;;;;;;4992006;28;20539;-59
2023/02/23 14:16:18;;;;;;;14.13;13.23;;;;;;;;;;4996323;28;20033;-58
2023/02/23 14:19:23;;;;;;;14.02;13.23;;;;;;;;;;4996019;28;20460;-59
2023/02/23 14:21:56;;;;;;;14.15;13.15;;;;;;;;;;4995765;28;20172;-59
2023/02/23 14:24:25;;;;;;;15.75;14.65;;;;;;;;;;4993362;28;20494;-59
2023/02/23 14:27:05;;;;;;;14.02;13.13;;;;;;;;;;4994732;28;20653;-59
2023/02/23 14:29:39;;;;;;;13.02;12.23;;;;;;;;;;4995856;28;20031;-59
2023/02/23 14:32:10;;;;;;;13.13;12.30;;;;;;;;;;4995451;28;20053;-59
2023/02/23 14:35:26;;;;;;;13.30;12.30;;;;;;;;;;4993389;28;20030;-58
2023/02/23 14:38:00;;;;;;;13.25;12.32;;;;;;;;;;4979188;28;20420;-59
2023/02/23 14:40:34;;;;;;;13.15;12.35;;;;;;;;;;4997839;28;20056;-59
2023/02/23 14:43:31;;;;;;;13.25;12.45;;;;;;;;;;4994037;28;20462;-59
2023/02/23 14:45:59;;;;;;;13.77;12.90;;;;;;;;;;4995695;28;20046;-58
2023/02/23 14:48:25;;;;;;;12.50;11.70;;;;;;;;;;4995675;28;20041;-58
2023/02/23 14:50:50;;;;;;;13.35;12.45;;;;;;;;;;4994931;28;20029;-58
2023/02/23 14:53:22;;;;;;;12.75;11.88;;;;;;;;;;4995366;28;20038;-59
2023/02/23 14:55:48;;;;;;;11.80;11.00;;;;;;;;;;4998724;28;20345;-59
2023/02/23 14:58:32;;;;;;;11.57;10.82;;;;;;;;;;4993559;28;20034;-59
2023/02/23 15:00:58;;;;;;;13.80;11.48;;;;;;;;;;4994506;28;20034;-59
2023/02/23 15:03:23;;;;;;;11.85;11.15;;;;;;;;;;4995523;28;20082;-58
2023/02/23 15:05:53;;;;;;;10.98;10.27;;;;;;;;;;4994727;28;20034;-60
2023/02/23 15:08:23;;;;;;;12.85;12.05;;;;;;;;;;5001527;28;20056;-59
2023/02/23 15:10:51;;;;;;;13.85;12.57;;;;;;;;;;4996180;28;20030;-58
2023/02/23 15:13:27;;;;;;;13.68;12.77;;;;;;;;;;4996553;28;20042;-59
2023/02/23 15:15:54;;;;;;;12.60;11.75;;;;;;;;;;4994849;28;20042;-59
2023/02/23 15:21:42;;;;;;;12.88;12.07;;;;;;;;;;4993856;28;20045;-59
2023/02/23 15:24:12;;;;;;;13.27;12.40;;;;;;;;;;4997596;28;20038;-59
2023/02/23 15:26:39;;;;;;;13.80;12.55;;;;;;;;;;4998234;28;20539;-59
2023/02/23 15:29:17;;;;;;;12.93;12.07;;;;;;;;;;4993178;28;20084;-59
2023/02/23 15:31:51;;;;;;;11.95;11.25;;;;;;;;;;4998273;28;20044;-59
2023/02/23 15:34:23;;;;;;;12.18;11.27;;;;;;;;;;4991543;28;20536;-59
2023/02/23 15:37:14;;;;;;;11.05;10.35;;;;;;;;;;4990874;28;20058;-58
2023/02/23 15:40:04;;;;;;;12.45;11.55;;;;;;;;;;4997724;28;20038;-59
2023/02/23 15:42:39;;;;;;;11.30;10.60;;;;;;;;;;4993576;28;20026;-59
2023/02/23 15:45:32;;;;;;;13.52;12.52;;;;;;;;;;4994896;28;20091;-59
2023/02/23 15:48:01;;;;;;;14.43;13.48;;;;;;;;;;4994434;28;20712;-59
2023/02/23 15:50:31;;;;;;;12.95;12.13;;;;;;;;;;4990861;28;20057;-58
2023/02/23 15:53:02;;;;;;;14.05;12.95;;;;;;;;;;4992491;28;20042;-57
2023/02/23 15:55:35;;;;;;;13.50;12.57;;;;;;;;;;4992294;28;20041;-58
2023/02/23 15:58:14;;;;;;;13.00;12.20;;;;;;;;;;4995075;28;20356;-58
2023/02/23 16:00:42;;;;;;;14.48;13.48;;;;;;;;;;4992346;28;20041;-58
2023/02/23 16:03:27;;;;;;;13.07;12.25;;;;;;;;;;4994682;28;20030;-58
2023/02/23 16:06:05;;;;;;;13.45;12.50;;;;;;;;;;4994167;28;20455;-60